sensor_id;sensor_type;location;lat;lon;timestamp;P1;durP1;ratioP1;P2;durP2;ratioP2
10174;SDS011;18221;38.704;0.152;2022-12-18T00:00:27;5.47;;;3.33;;
10174;SDS011;18221;38.704;0.152;2022-12-18T00:12:02;5.43;;;3.40;;
10174;SDS011;18221;38.704;0.152;2022-12-18T00:14:31;4.27;;;3.00;;
10174;SDS011;18221;38.704;0.152;2022-12-18T00:17:00;3.67;;;2.80;;
10174;SDS011;18221;38.704;0.152;2022-12-18T00:19:28;4.20;;;2.80;;
10174;SDS011;18221;38.704;0.152;2022-12-18T00:21:57;4.13;;;2.83;;
10174;SDS011;18221;38.704;0.152;2022-12-18T00:24:25;3.00;;;2.70;;
10174;SDS011;18221;38.704;0.152;2022-12-18T00:26:53;5.23;;;3.00;;
10174;SDS011;18221;38.704;0.152;2022-12-18T00:29:23;3.20;;;2.73;;
10174;SDS011;18221;38.704;0.152;2022-12-18T00:31:51;3.80;;;2.60;;
10174;SDS011;18221;38.704;0.152;2022-12-18T00:34:19;4.07;;;2.60;;
10174;SDS011;18221;38.704;0.152;2022-12-18T00:36:48;3.80;;;2.70;;
10174;SDS011;18221;38.704;0.152;2022-12-18T00:39:16;5.37;;;3.30;;
10174;SDS011;18221;38.704;0.152;2022-12-18T00:41:44;3.03;;;2.50;;
10174;SDS011;18221;38.704;0.152;2022-12-18T00:44:31;2.93;;;2.47;;
10174;SDS011;18221;38.704;0.152;2022-12-18T00:46:59;3.13;;;2.47;;
10174;SDS011;18221;38.704;0.152;2022-12-18T00:49:27;3.60;;;2.33;;
10174;SDS011;18221;38.704;0.152;2022-12-18T00:51:55;2.73;;;2.50;;
10174;SDS011;18221;38.704;0.152;2022-12-18T00:54:23;4.43;;;2.70;;
10174;SDS011;18221;38.704;0.152;2022-12-18T00:56:52;3.80;;;2.80;;
10174;SDS011;18221;38.704;0.152;2022-12-18T00:59:20;3.40;;;2.63;;
10174;SDS011;18221;38.704;0.152;2022-12-18T01:01:50;4.83;;;2.97;;
10174;SDS011;18221;38.704;0.152;2022-12-18T01:04:18;4.20;;;2.90;;
10174;SDS011;18221;38.704;0.152;2022-12-18T01:06:46;3.03;;;2.67;;
10174;SDS011;18221;38.704;0.152;2022-12-18T01:09:15;2.80;;;2.60;;
10174;SDS011;18221;38.704;0.152;2022-12-18T01:11:45;6.40;;;3.23;;
10174;SDS011;18221;38.704;0.152;2022-12-18T01:14:13;3.40;;;3.10;;
10174;SDS011;18221;38.704;0.152;2022-12-18T01:16:41;4.50;;;3.17;;
10174;SDS011;18221;38.704;0.152;2022-12-18T01:19:11;5.63;;;3.30;;
10174;SDS011;18221;38.704;0.152;2022-12-18T01:21:40;3.30;;;3.00;;
10174;SDS011;18221;38.704;0.152;2022-12-18T01:24:09;3.77;;;3.07;;
10174;SDS011;18221;38.704;0.152;2022-12-18T01:26:39;4.37;;;3.10;;
10174;SDS011;18221;38.704;0.152;2022-12-18T01:29:07;4.83;;;3.40;;
10174;SDS011;18221;38.704;0.152;2022-12-18T01:31:36;3.43;;;2.90;;
10174;SDS011;18221;38.704;0.152;2022-12-18T01:34:04;5.60;;;3.10;;
10174;SDS011;18221;38.704;0.152;2022-12-18T01:36:36;4.87;;;3.03;;
10174;SDS011;18221;38.704;0.152;2022-12-18T01:39:06;5.27;;;3.10;;
10174;SDS011;18221;38.704;0.152;2022-12-18T01:41:38;5.53;;;3.63;;
10174;SDS011;18221;38.704;0.152;2022-12-18T01:47:23;4.87;;;3.53;;
10174;SDS011;18221;38.704;0.152;2022-12-18T01:49:57;8.67;;;4.20;;
10174;SDS011;18221;38.704;0.152;2022-12-18T01:52:33;4.93;;;4.00;;
10174;SDS011;18221;38.704;0.152;2022-12-18T01:55:03;6.67;;;4.10;;
10174;SDS011;18221;38.704;0.152;2022-12-18T01:57:34;4.93;;;3.80;;
10174;SDS011;18221;38.704;0.152;2022-12-18T02:00:05;6.23;;;3.93;;
10174;SDS011;18221;38.704;0.152;2022-12-18T02:02:36;5.23;;;3.83;;
10174;SDS011;18221;38.704;0.152;2022-12-18T02:05:06;5.87;;;4.20;;
10174;SDS011;18221;38.704;0.152;2022-12-18T02:07:40;6.27;;;3.83;;
10174;SDS011;18221;38.704;0.152;2022-12-18T02:10:22;7.27;;;4.23;;
10174;SDS011;18221;38.704;0.152;2022-12-18T02:13:00;5.63;;;3.63;;
10174;SDS011;18221;38.704;0.152;2022-12-18T02:15:40;6.43;;;3.87;;
10174;SDS011;18221;38.704;0.152;2022-12-18T02:18:21;4.97;;;3.73;;
10174;SDS011;18221;38.704;0.152;2022-12-18T02:20:55;6.70;;;4.53;;
10174;SDS011;18221;38.704;0.152;2022-12-18T02:23:47;5.97;;;3.93;;
10174;SDS011;18221;38.704;0.152;2022-12-18T02:26:29;5.10;;;3.47;;
10174;SDS011;18221;38.704;0.152;2022-12-18T02:29:03;5.43;;;3.57;;
10174;SDS011;18221;38.704;0.152;2022-12-18T02:31:38;6.93;;;4.17;;
10174;SDS011;18221;38.704;0.152;2022-12-18T02:34:12;6.37;;;4.20;;
10174;SDS011;18221;38.704;0.152;2022-12-18T02:36:43;6.27;;;4.37;;
10174;SDS011;18221;38.704;0.152;2022-12-18T02:39:15;5.00;;;4.50;;
10174;SDS011;18221;38.704;0.152;2022-12-18T02:41:49;5.23;;;3.97;;
10174;SDS011;18221;38.704;0.152;2022-12-18T02:44:18;4.63;;;3.73;;
10174;SDS011;18221;38.704;0.152;2022-12-18T02:46:48;5.30;;;4.00;;
10174;SDS011;18221;38.704;0.152;2022-12-18T02:49:24;5.50;;;4.27;;
10174;SDS011;18221;38.704;0.152;2022-12-18T02:52:05;6.27;;;3.80;;
10174;SDS011;18221;38.704;0.152;2022-12-18T02:54:49;5.93;;;3.97;;
10174;SDS011;18221;38.704;0.152;2022-12-18T02:57:32;5.40;;;3.87;;
10174;SDS011;18221;38.704;0.152;2022-12-18T03:00:08;5.80;;;3.90;;
10174;SDS011;18221;38.704;0.152;2022-12-18T03:02:44;6.13;;;3.90;;
10174;SDS011;18221;38.704;0.152;2022-12-18T03:05:30;5.47;;;3.73;;
10174;SDS011;18221;38.704;0.152;2022-12-18T03:08:03;6.80;;;4.27;;
10174;SDS011;18221;38.704;0.152;2022-12-18T03:10:41;7.17;;;4.07;;
10174;SDS011;18221;38.704;0.152;2022-12-18T03:13:22;5.83;;;4.07;;
10174;SDS011;18221;38.704;0.152;2022-12-18T03:15:57;5.30;;;3.63;;
10174;SDS011;18221;38.704;0.152;2022-12-18T03:18:30;4.50;;;3.60;;
10174;SDS011;18221;38.704;0.152;2022-12-18T03:21:06;5.13;;;3.60;;
10174;SDS011;18221;38.704;0.152;2022-12-18T03:23:39;4.67;;;3.57;;
10174;SDS011;18221;38.704;0.152;2022-12-18T03:26:14;4.97;;;3.60;;
10174;SDS011;18221;38.704;0.152;2022-12-18T03:28:49;6.27;;;3.60;;
10174;SDS011;18221;38.704;0.152;2022-12-18T03:31:20;5.37;;;3.33;;
10174;SDS011;18221;38.704;0.152;2022-12-18T03:33:52;6.30;;;3.60;;
10174;SDS011;18221;38.704;0.152;2022-12-18T03:36:22;4.27;;;3.23;;
10174;SDS011;18221;38.704;0.152;2022-12-18T03:38:52;5.63;;;3.33;;
10174;SDS011;18221;38.704;0.152;2022-12-18T03:41:22;3.33;;;2.97;;
10174;SDS011;18221;38.704;0.152;2022-12-18T03:44:01;5.70;;;3.03;;
10174;SDS011;18221;38.704;0.152;2022-12-18T03:46:41;6.17;;;2.90;;
10174;SDS011;18221;38.704;0.152;2022-12-18T03:49:19;3.90;;;2.80;;
10174;SDS011;18221;38.704;0.152;2022-12-18T03:52:01;4.07;;;2.80;;
10174;SDS011;18221;38.704;0.152;2022-12-18T03:54:35;3.20;;;2.83;;
10174;SDS011;18221;38.704;0.152;2022-12-18T03:57:09;4.60;;;3.00;;
10174;SDS011;18221;38.704;0.152;2022-12-18T03:59:47;4.93;;;3.00;;
10174;SDS011;18221;38.704;0.152;2022-12-18T04:02:22;3.27;;;2.87;;
10174;SDS011;18221;38.704;0.152;2022-12-18T04:04:51;3.80;;;2.63;;
10174;SDS011;18221;38.704;0.152;2022-12-18T04:07:25;3.13;;;2.73;;
10174;SDS011;18221;38.704;0.152;2022-12-18T04:09:56;3.37;;;2.70;;
10174;SDS011;18221;38.704;0.152;2022-12-18T04:12:28;5.23;;;2.77;;
10174;SDS011;18221;38.704;0.152;2022-12-18T04:14:59;4.20;;;2.77;;
10174;SDS011;18221;38.704;0.152;2022-12-18T04:17:27;4.37;;;3.10;;
10174;SDS011;18221;38.704;0.152;2022-12-18T04:19:55;3.80;;;2.87;;
10174;SDS011;18221;38.704;0.152;2022-12-18T04:22:23;3.40;;;2.90;;
10174;SDS011;18221;38.704;0.152;2022-12-18T04:24:51;4.33;;;3.27;;
10174;SDS011;18221;38.704;0.152;2022-12-18T04:27:19;3.60;;;2.97;;
10174;SDS011;18221;38.704;0.152;2022-12-18T04:29:47;4.17;;;3.13;;
10174;SDS011;18221;38.704;0.152;2022-12-18T04:32:17;4.43;;;3.00;;
10174;SDS011;18221;38.704;0.152;2022-12-18T04:34:45;3.50;;;3.20;;
10174;SDS011;18221;38.704;0.152;2022-12-18T04:37:14;4.77;;;3.37;;
10174;SDS011;18221;38.704;0.152;2022-12-18T04:39:42;6.90;;;3.50;;
10174;SDS011;18221;38.704;0.152;2022-12-18T04:42:10;4.60;;;3.37;;
10174;SDS011;18221;38.704;0.152;2022-12-18T04:44:38;4.87;;;2.93;;
10174;SDS011;18221;38.704;0.152;2022-12-18T04:47:07;4.97;;;3.00;;
10174;SDS011;18221;38.704;0.152;2022-12-18T04:49:36;4.03;;;2.90;;
10174;SDS011;18221;38.704;0.152;2022-12-18T04:52:04;4.37;;;2.97;;
10174;SDS011;18221;38.704;0.152;2022-12-18T04:54:33;3.53;;;2.80;;
10174;SDS011;18221;38.704;0.152;2022-12-18T04:57:01;3.40;;;2.50;;
10174;SDS011;18221;38.704;0.152;2022-12-18T04:59:29;3.53;;;2.60;;
10174;SDS011;18221;38.704;0.152;2022-12-18T05:01:57;3.40;;;2.70;;
10174;SDS011;18221;38.704;0.152;2022-12-18T05:04:26;2.90;;;2.60;;
10174;SDS011;18221;38.704;0.152;2022-12-18T05:06:55;3.40;;;2.70;;
10174;SDS011;18221;38.704;0.152;2022-12-18T05:09:24;3.47;;;2.70;;
10174;SDS011;18221;38.704;0.152;2022-12-18T05:11:52;3.47;;;2.67;;
10174;SDS011;18221;38.704;0.152;2022-12-18T05:14:20;4.33;;;2.63;;
10174;SDS011;18221;38.704;0.152;2022-12-18T05:16:48;4.00;;;3.30;;
10174;SDS011;18221;38.704;0.152;2022-12-18T05:19:17;4.23;;;2.93;;
10174;SDS011;18221;38.704;0.152;2022-12-18T05:21:45;5.23;;;2.97;;
10174;SDS011;18221;38.704;0.152;2022-12-18T05:24:15;3.33;;;3.00;;
10174;SDS011;18221;38.704;0.152;2022-12-18T05:26:43;3.63;;;2.60;;
10174;SDS011;18221;38.704;0.152;2022-12-18T05:29:11;3.73;;;2.57;;
10174;SDS011;18221;38.704;0.152;2022-12-18T05:31:40;3.97;;;3.00;;
10174;SDS011;18221;38.704;0.152;2022-12-18T05:34:08;3.10;;;2.43;;
10174;SDS011;18221;38.704;0.152;2022-12-18T05:36:36;3.80;;;2.83;;
10174;SDS011;18221;38.704;0.152;2022-12-18T05:39:05;3.07;;;2.60;;
10174;SDS011;18221;38.704;0.152;2022-12-18T05:41:35;4.13;;;2.83;;
10174;SDS011;18221;38.704;0.152;2022-12-18T05:44:03;3.70;;;2.50;;
10174;SDS011;18221;38.704;0.152;2022-12-18T05:46:32;4.97;;;2.83;;
10174;SDS011;18221;38.704;0.152;2022-12-18T05:49:00;5.37;;;3.07;;
10174;SDS011;18221;38.704;0.152;2022-12-18T05:51:29;3.17;;;2.63;;
10174;SDS011;18221;38.704;0.152;2022-12-18T05:53:58;4.50;;;3.20;;
10174;SDS011;18221;38.704;0.152;2022-12-18T05:56:26;3.43;;;3.13;;
10174;SDS011;18221;38.704;0.152;2022-12-18T05:58:56;6.37;;;3.17;;
10174;SDS011;18221;38.704;0.152;2022-12-18T06:01:25;5.53;;;3.80;;
10174;SDS011;18221;38.704;0.152;2022-12-18T06:03:54;5.50;;;4.07;;
10174;SDS011;18221;38.704;0.152;2022-12-18T06:06:23;4.50;;;3.93;;
10174;SDS011;18221;38.704;0.152;2022-12-18T06:08:54;5.17;;;3.80;;
10174;SDS011;18221;38.704;0.152;2022-12-18T06:11:24;5.43;;;3.63;;
10174;SDS011;18221;38.704;0.152;2022-12-18T06:13:54;3.80;;;3.40;;
10174;SDS011;18221;38.704;0.152;2022-12-18T06:16:24;5.97;;;3.53;;
10174;SDS011;18221;38.704;0.152;2022-12-18T06:18:53;6.40;;;3.97;;
10174;SDS011;18221;38.704;0.152;2022-12-18T06:21:23;5.00;;;3.57;;
10174;SDS011;18221;38.704;0.152;2022-12-18T06:23:52;5.93;;;3.73;;
10174;SDS011;18221;38.704;0.152;2022-12-18T06:26:20;4.97;;;3.67;;
10174;SDS011;18221;38.704;0.152;2022-12-18T06:28:48;4.50;;;3.60;;
10174;SDS011;18221;38.704;0.152;2022-12-18T06:31:18;6.43;;;3.90;;
10174;SDS011;18221;38.704;0.152;2022-12-18T06:33:46;5.90;;;4.23;;
10174;SDS011;18221;38.704;0.152;2022-12-18T06:36:15;6.53;;;4.20;;
10174;SDS011;18221;38.704;0.152;2022-12-18T06:38:43;7.20;;;3.50;;
10174;SDS011;18221;38.704;0.152;2022-12-18T06:41:12;5.67;;;3.50;;
10174;SDS011;18221;38.704;0.152;2022-12-18T06:43:43;5.60;;;3.77;;
10174;SDS011;18221;38.704;0.152;2022-12-18T06:46:11;5.23;;;3.60;;
10174;SDS011;18221;38.704;0.152;2022-12-18T06:48:41;5.77;;;4.00;;
10174;SDS011;18221;38.704;0.152;2022-12-18T06:51:15;5.17;;;3.93;;
10174;SDS011;18221;38.704;0.152;2022-12-18T06:53:44;5.47;;;4.20;;
10174;SDS011;18221;38.704;0.152;2022-12-18T06:56:13;5.50;;;4.27;;
10174;SDS011;18221;38.704;0.152;2022-12-18T06:58:41;7.50;;;4.70;;
10174;SDS011;18221;38.704;0.152;2022-12-18T07:01:10;6.67;;;4.53;;
10174;SDS011;18221;38.704;0.152;2022-12-18T07:03:41;6.23;;;4.90;;
10174;SDS011;18221;38.704;0.152;2022-12-18T07:06:13;7.33;;;4.70;;
10174;SDS011;18221;38.704;0.152;2022-12-18T07:08:43;8.47;;;5.00;;
10174;SDS011;18221;38.704;0.152;2022-12-18T07:11:13;6.80;;;5.07;;
10174;SDS011;18221;38.704;0.152;2022-12-18T07:13:42;7.40;;;5.10;;
10174;SDS011;18221;38.704;0.152;2022-12-18T07:16:12;6.90;;;4.70;;
10174;SDS011;18221;38.704;0.152;2022-12-18T07:18:44;6.17;;;4.80;;
10174;SDS011;18221;38.704;0.152;2022-12-18T07:21:14;7.27;;;5.40;;
10174;SDS011;18221;38.704;0.152;2022-12-18T07:23:46;7.10;;;5.23;;
10174;SDS011;18221;38.704;0.152;2022-12-18T07:26:18;7.83;;;5.10;;
10174;SDS011;18221;38.704;0.152;2022-12-18T07:28:48;9.63;;;5.20;;
10174;SDS011;18221;38.704;0.152;2022-12-18T07:31:18;6.10;;;4.97;;
10174;SDS011;18221;38.704;0.152;2022-12-18T07:33:50;8.07;;;5.50;;
10174;SDS011;18221;38.704;0.152;2022-12-18T07:36:19;7.60;;;5.20;;
10174;SDS011;18221;38.704;0.152;2022-12-18T07:38:47;10.17;;;5.43;;
10174;SDS011;18221;38.704;0.152;2022-12-18T07:41:17;8.97;;;5.43;;
10174;SDS011;18221;38.704;0.152;2022-12-18T07:43:45;7.73;;;5.90;;
10174;SDS011;18221;38.704;0.152;2022-12-18T07:46:14;10.77;;;6.00;;
10174;SDS011;18221;38.704;0.152;2022-12-18T07:48:43;9.57;;;5.97;;
10174;SDS011;18221;38.704;0.152;2022-12-18T07:51:14;8.33;;;5.30;;
10174;SDS011;18221;38.704;0.152;2022-12-18T07:53:42;8.93;;;5.37;;
10174;SDS011;18221;38.704;0.152;2022-12-18T07:56:11;9.20;;;5.00;;
10174;SDS011;18221;38.704;0.152;2022-12-18T07:58:40;8.20;;;4.50;;
10174;SDS011;18221;38.704;0.152;2022-12-18T08:01:10;9.87;;;4.87;;
10174;SDS011;18221;38.704;0.152;2022-12-18T08:03:39;7.03;;;4.90;;
10174;SDS011;18221;38.704;0.152;2022-12-18T08:06:08;6.13;;;4.77;;
10174;SDS011;18221;38.704;0.152;2022-12-18T08:08:38;6.43;;;4.33;;
10174;SDS011;18221;38.704;0.152;2022-12-18T08:11:07;5.77;;;4.70;;
10174;SDS011;18221;38.704;0.152;2022-12-18T08:13:35;6.43;;;4.63;;
10174;SDS011;18221;38.704;0.152;2022-12-18T08:16:04;8.73;;;4.63;;
10174;SDS011;18221;38.704;0.152;2022-12-18T08:18:34;5.60;;;4.53;;
10174;SDS011;18221;38.704;0.152;2022-12-18T08:21:07;6.37;;;4.40;;
10174;SDS011;18221;38.704;0.152;2022-12-18T08:23:38;4.80;;;3.87;;
10174;SDS011;18221;38.704;0.152;2022-12-18T08:26:07;6.23;;;4.40;;
10174;SDS011;18221;38.704;0.152;2022-12-18T08:28:36;6.03;;;4.73;;
10174;SDS011;18221;38.704;0.152;2022-12-18T08:31:04;8.00;;;4.93;;
10174;SDS011;18221;38.704;0.152;2022-12-18T08:33:33;6.67;;;5.13;;
10174;SDS011;18221;38.704;0.152;2022-12-18T08:36:04;6.73;;;4.77;;
10174;SDS011;18221;38.704;0.152;2022-12-18T08:38:34;5.73;;;4.90;;
10174;SDS011;18221;38.704;0.152;2022-12-18T08:41:05;5.40;;;4.20;;
10174;SDS011;18221;38.704;0.152;2022-12-18T08:43:35;5.90;;;4.90;;
10174;SDS011;18221;38.704;0.152;2022-12-18T08:46:22;6.70;;;4.50;;
10174;SDS011;18221;38.704;0.152;2022-12-18T08:48:54;5.57;;;5.03;;
10174;SDS011;18221;38.704;0.152;2022-12-18T08:51:22;8.67;;;5.03;;
10174;SDS011;18221;38.704;0.152;2022-12-18T08:53:52;7.27;;;4.73;;
10174;SDS011;18221;38.704;0.152;2022-12-18T08:56:21;6.10;;;4.67;;
10174;SDS011;18221;38.704;0.152;2022-12-18T08:58:50;8.57;;;5.13;;
10174;SDS011;18221;38.704;0.152;2022-12-18T09:01:20;7.00;;;5.17;;
10174;SDS011;18221;38.704;0.152;2022-12-18T09:03:49;8.03;;;5.10;;
10174;SDS011;18221;38.704;0.152;2022-12-18T09:06:19;7.60;;;5.67;;
10174;SDS011;18221;38.704;0.152;2022-12-18T09:08:49;7.93;;;5.57;;
10174;SDS011;18221;38.704;0.152;2022-12-18T09:11:20;8.23;;;5.63;;
10174;SDS011;18221;38.704;0.152;2022-12-18T09:13:51;7.50;;;5.53;;
10174;SDS011;18221;38.704;0.152;2022-12-18T09:16:21;7.47;;;5.63;;
10174;SDS011;18221;38.704;0.152;2022-12-18T09:18:51;6.47;;;5.57;;
10174;SDS011;18221;38.704;0.152;2022-12-18T09:21:25;8.57;;;6.10;;
10174;SDS011;18221;38.704;0.152;2022-12-18T09:23:57;7.63;;;5.53;;
10174;SDS011;18221;38.704;0.152;2022-12-18T09:26:26;8.23;;;5.70;;
10174;SDS011;18221;38.704;0.152;2022-12-18T09:28:55;6.40;;;5.27;;
10174;SDS011;18221;38.704;0.152;2022-12-18T09:31:24;9.43;;;6.43;;
10174;SDS011;18221;38.704;0.152;2022-12-18T09:33:54;7.87;;;6.00;;
10174;SDS011;18221;38.704;0.152;2022-12-18T09:36:23;7.43;;;5.40;;
10174;SDS011;18221;38.704;0.152;2022-12-18T09:38:52;9.67;;;5.10;;
10174;SDS011;18221;38.704;0.152;2022-12-18T09:41:27;7.17;;;5.30;;
10174;SDS011;18221;38.704;0.152;2022-12-18T09:44:19;9.27;;;5.27;;
10174;SDS011;18221;38.704;0.152;2022-12-18T09:46:54;6.70;;;5.03;;
10174;SDS011;18221;38.704;0.152;2022-12-18T09:49:37;7.17;;;4.77;;
10174;SDS011;18221;38.704;0.152;2022-12-18T09:52:12;8.90;;;5.23;;
10174;SDS011;18221;38.704;0.152;2022-12-18T09:54:49;6.07;;;4.83;;
10174;SDS011;18221;38.704;0.152;2022-12-18T09:57:25;9.23;;;5.07;;
10174;SDS011;18221;38.704;0.152;2022-12-18T09:59:55;7.50;;;5.07;;
10174;SDS011;18221;38.704;0.152;2022-12-18T10:02:30;6.67;;;4.77;;
10174;SDS011;18221;38.704;0.152;2022-12-18T10:05:03;7.10;;;4.23;;
10174;SDS011;18221;38.704;0.152;2022-12-18T10:07:41;6.83;;;4.33;;
10174;SDS011;18221;38.704;0.152;2022-12-18T10:10:27;6.70;;;4.47;;
10174;SDS011;18221;38.704;0.152;2022-12-18T10:13:10;5.50;;;3.90;;
10174;SDS011;18221;38.704;0.152;2022-12-18T10:15:58;6.37;;;4.67;;
10174;SDS011;18221;38.704;0.152;2022-12-18T10:21:47;4.80;;;4.07;;
10174;SDS011;18221;38.704;0.152;2022-12-18T10:24:25;7.50;;;4.23;;
10174;SDS011;18221;38.704;0.152;2022-12-18T10:27:08;6.33;;;4.70;;
10174;SDS011;18221;38.704;0.152;2022-12-18T10:29:44;7.10;;;4.13;;
10174;SDS011;18221;38.704;0.152;2022-12-18T10:32:14;5.47;;;4.10;;
10174;SDS011;18221;38.704;0.152;2022-12-18T10:34:46;8.70;;;4.60;;
10174;SDS011;18221;38.704;0.152;2022-12-18T10:37:17;8.37;;;4.20;;
10174;SDS011;18221;38.704;0.152;2022-12-18T10:39:47;5.47;;;3.77;;
10174;SDS011;18221;38.704;0.152;2022-12-18T10:42:37;5.93;;;3.93;;
10174;SDS011;18221;38.704;0.152;2022-12-18T10:45:10;4.87;;;4.10;;
10174;SDS011;18221;38.704;0.152;2022-12-18T10:47:42;4.27;;;3.57;;
10174;SDS011;18221;38.704;0.152;2022-12-18T10:50:18;9.03;;;4.00;;
10174;SDS011;18221;38.704;0.152;2022-12-18T10:52:56;5.43;;;3.60;;
10174;SDS011;18221;38.704;0.152;2022-12-18T10:55:28;4.50;;;3.23;;
10174;SDS011;18221;38.704;0.152;2022-12-18T10:58:13;3.60;;;3.03;;
10174;SDS011;18221;38.704;0.152;2022-12-18T11:03:39;4.40;;;3.40;;
10174;SDS011;18221;38.704;0.152;2022-12-18T11:06:10;6.23;;;3.67;;
10174;SDS011;18221;38.704;0.152;2022-12-18T11:08:42;5.60;;;3.47;;
10174;SDS011;18221;38.704;0.152;2022-12-18T11:11:24;4.77;;;3.60;;
10174;SDS011;18221;38.704;0.152;2022-12-18T11:14:01;4.30;;;3.60;;
10174;SDS011;18221;38.704;0.152;2022-12-18T11:16:34;4.70;;;3.50;;
10174;SDS011;18221;38.704;0.152;2022-12-18T11:19:13;5.07;;;3.10;;
10174;SDS011;18221;38.704;0.152;2022-12-18T11:21:51;6.43;;;3.40;;
10174;SDS011;18221;38.704;0.152;2022-12-18T11:24:20;4.77;;;3.10;;
10174;SDS011;18221;38.704;0.152;2022-12-18T11:26:55;4.73;;;3.00;;
10174;SDS011;18221;38.704;0.152;2022-12-18T11:29:29;5.90;;;3.33;;
10174;SDS011;18221;38.704;0.152;2022-12-18T11:35:03;4.90;;;3.20;;
10174;SDS011;18221;38.704;0.152;2022-12-18T11:37:42;3.47;;;2.97;;
10174;SDS011;18221;38.704;0.152;2022-12-18T11:40:17;5.53;;;3.00;;
10174;SDS011;18221;38.704;0.152;2022-12-18T11:42:54;5.03;;;3.33;;
10174;SDS011;18221;38.704;0.152;2022-12-18T11:45:34;5.70;;;3.50;;
10174;SDS011;18221;38.704;0.152;2022-12-18T11:48:12;4.07;;;2.70;;
10174;SDS011;18221;38.704;0.152;2022-12-18T11:50:49;4.87;;;3.17;;
10174;SDS011;18221;38.704;0.152;2022-12-18T11:53:20;4.23;;;3.00;;
10174;SDS011;18221;38.704;0.152;2022-12-18T11:56:02;4.87;;;3.03;;
10174;SDS011;18221;38.704;0.152;2022-12-18T11:58:51;4.43;;;2.97;;
10174;SDS011;18221;38.704;0.152;2022-12-18T12:01:37;5.43;;;2.83;;
10174;SDS011;18221;38.704;0.152;2022-12-18T12:04:26;4.43;;;3.00;;
10174;SDS011;18221;38.704;0.152;2022-12-18T12:07:27;6.10;;;3.37;;
10174;SDS011;18221;38.704;0.152;2022-12-18T12:10:13;3.80;;;3.40;;
10174;SDS011;18221;38.704;0.152;2022-12-18T12:13:01;3.87;;;3.00;;
10174;SDS011;18221;38.704;0.152;2022-12-18T12:15:55;5.10;;;3.43;;
10174;SDS011;18221;38.704;0.152;2022-12-18T12:18:44;6.33;;;3.43;;
10174;SDS011;18221;38.704;0.152;2022-12-18T12:21:35;5.60;;;3.33;;
10174;SDS011;18221;38.704;0.152;2022-12-18T12:24:18;4.63;;;2.93;;
10174;SDS011;18221;38.704;0.152;2022-12-18T12:27:05;7.97;;;3.80;;
10174;SDS011;18221;38.704;0.152;2022-12-18T12:29:50;5.33;;;3.27;;
10174;SDS011;18221;38.704;0.152;2022-12-18T12:32:38;6.17;;;3.30;;
10174;SDS011;18221;38.704;0.152;2022-12-18T12:35:29;4.97;;;3.17;;
10174;SDS011;18221;38.704;0.152;2022-12-18T12:38:13;5.27;;;3.67;;
10174;SDS011;18221;38.704;0.152;2022-12-18T12:40:49;3.90;;;3.23;;
10174;SDS011;18221;38.704;0.152;2022-12-18T12:43:27;6.37;;;3.27;;
10174;SDS011;18221;38.704;0.152;2022-12-18T12:46:04;4.73;;;3.20;;
10174;SDS011;18221;38.704;0.152;2022-12-18T12:48:37;4.20;;;2.87;;
10174;SDS011;18221;38.704;0.152;2022-12-18T12:51:12;5.80;;;3.33;;
10174;SDS011;18221;38.704;0.152;2022-12-18T12:53:46;3.53;;;3.23;;
10174;SDS011;18221;38.704;0.152;2022-12-18T12:56:17;4.10;;;3.00;;
10174;SDS011;18221;38.704;0.152;2022-12-18T12:58:57;6.17;;;3.47;;
10174;SDS011;18221;38.704;0.152;2022-12-18T13:01:39;5.33;;;3.50;;
10174;SDS011;18221;38.704;0.152;2022-12-18T13:04:18;8.77;;;3.80;;
10174;SDS011;18221;38.704;0.152;2022-12-18T13:06:58;7.47;;;3.80;;
10174;SDS011;18221;38.704;0.152;2022-12-18T13:10:10;5.30;;;3.63;;
10174;SDS011;18221;38.704;0.152;2022-12-18T13:12:54;5.87;;;3.70;;
10174;SDS011;18221;38.704;0.152;2022-12-18T13:15:23;5.03;;;3.60;;
10174;SDS011;18221;38.704;0.152;2022-12-18T13:21:01;4.07;;;3.23;;
10174;SDS011;18221;38.704;0.152;2022-12-18T13:23:39;5.93;;;3.67;;
10174;SDS011;18221;38.704;0.152;2022-12-18T13:29:02;3.53;;;2.87;;
10174;SDS011;18221;38.704;0.152;2022-12-18T13:38:18;5.80;;;3.00;;
10174;SDS011;18221;38.704;0.152;2022-12-18T13:40:53;3.47;;;3.17;;
10174;SDS011;18221;38.704;0.152;2022-12-18T13:43:29;5.07;;;2.90;;
10174;SDS011;18221;38.704;0.152;2022-12-18T13:46:18;3.60;;;2.90;;
10174;SDS011;18221;38.704;0.152;2022-12-18T13:48:51;4.97;;;3.07;;
10174;SDS011;18221;38.704;0.152;2022-12-18T13:51:24;5.10;;;3.00;;
10174;SDS011;18221;38.704;0.152;2022-12-18T13:53:54;5.57;;;2.93;;
10174;SDS011;18221;38.704;0.152;2022-12-18T13:56:27;4.43;;;2.50;;
10174;SDS011;18221;38.704;0.152;2022-12-18T13:59:06;4.37;;;2.60;;
10174;SDS011;18221;38.704;0.152;2022-12-18T14:01:45;4.67;;;3.07;;
10174;SDS011;18221;38.704;0.152;2022-12-18T14:04:19;12.10;;;3.00;;
10174;SDS011;18221;38.704;0.152;2022-12-18T14:06:55;4.50;;;2.80;;
10174;SDS011;18221;38.704;0.152;2022-12-18T14:09:30;3.87;;;2.50;;
10174;SDS011;18221;38.704;0.152;2022-12-18T14:12:03;4.37;;;2.77;;
10174;SDS011;18221;38.704;0.152;2022-12-18T14:14:56;4.97;;;3.00;;
10174;SDS011;18221;38.704;0.152;2022-12-18T14:17:25;3.97;;;2.63;;
10174;SDS011;18221;38.704;0.152;2022-12-18T14:19:54;4.47;;;2.93;;
10174;SDS011;18221;38.704;0.152;2022-12-18T14:22:24;6.17;;;2.80;;
10174;SDS011;18221;38.704;0.152;2022-12-18T14:25:13;3.50;;;3.20;;
10174;SDS011;18221;38.704;0.152;2022-12-18T14:27:47;5.73;;;3.23;;
10174;SDS011;18221;38.704;0.152;2022-12-18T14:30:27;5.20;;;3.20;;
10174;SDS011;18221;38.704;0.152;2022-12-18T14:33:02;4.03;;;2.77;;
10174;SDS011;18221;38.704;0.152;2022-12-18T14:35:32;3.13;;;2.30;;
10174;SDS011;18221;38.704;0.152;2022-12-18T14:38:19;3.77;;;2.70;;
10174;SDS011;18221;38.704;0.152;2022-12-18T14:40:54;4.33;;;2.40;;
10174;SDS011;18221;38.704;0.152;2022-12-18T14:43:26;3.63;;;2.53;;
10174;SDS011;18221;38.704;0.152;2022-12-18T14:45:58;4.00;;;2.67;;
10174;SDS011;18221;38.704;0.152;2022-12-18T14:48:35;5.07;;;2.90;;
10174;SDS011;18221;38.704;0.152;2022-12-18T14:51:12;3.37;;;2.83;;
10174;SDS011;18221;38.704;0.152;2022-12-18T14:53:46;5.30;;;2.83;;
10174;SDS011;18221;38.704;0.152;2022-12-18T14:56:20;2.70;;;2.50;;
10174;SDS011;18221;38.704;0.152;2022-12-18T14:58:52;4.27;;;2.50;;
10174;SDS011;18221;38.704;0.152;2022-12-18T15:01:26;3.53;;;2.60;;
10174;SDS011;18221;38.704;0.152;2022-12-18T15:03:58;7.07;;;2.90;;
10174;SDS011;18221;38.704;0.152;2022-12-18T15:06:32;3.17;;;2.67;;
10174;SDS011;18221;38.704;0.152;2022-12-18T15:09:03;5.83;;;3.13;;
10174;SDS011;18221;38.704;0.152;2022-12-18T15:11:49;6.17;;;3.33;;
10174;SDS011;18221;38.704;0.152;2022-12-18T15:14:33;3.13;;;2.87;;
10174;SDS011;18221;38.704;0.152;2022-12-18T15:17:14;5.07;;;3.17;;
10174;SDS011;18221;38.704;0.152;2022-12-18T15:19:47;6.00;;;3.53;;
10174;SDS011;18221;38.704;0.152;2022-12-18T15:24:53;4.93;;;3.20;;
10174;SDS011;18221;38.704;0.152;2022-12-18T15:27:25;4.77;;;3.00;;
10174;SDS011;18221;38.704;0.152;2022-12-18T15:32:52;4.77;;;3.30;;
10174;SDS011;18221;38.704;0.152;2022-12-18T15:35:56;4.13;;;3.47;;
10174;SDS011;18221;38.704;0.152;2022-12-18T15:38:25;4.83;;;3.30;;
10174;SDS011;18221;38.704;0.152;2022-12-18T15:40:54;4.00;;;3.10;;
10174;SDS011;18221;38.704;0.152;2022-12-18T15:43:23;5.23;;;3.33;;
10174;SDS011;18221;38.704;0.152;2022-12-18T15:46:00;4.73;;;3.27;;
10174;SDS011;18221;38.704;0.152;2022-12-18T15:48:33;5.20;;;3.00;;
10174;SDS011;18221;38.704;0.152;2022-12-18T15:51:08;4.10;;;3.40;;
10174;SDS011;18221;38.704;0.152;2022-12-18T15:53:42;5.47;;;3.20;;
10174;SDS011;18221;38.704;0.152;2022-12-18T15:56:13;5.33;;;3.40;;
10174;SDS011;18221;38.704;0.152;2022-12-18T15:58:59;4.63;;;3.27;;
10174;SDS011;18221;38.704;0.152;2022-12-18T16:01:29;4.20;;;2.93;;
10174;SDS011;18221;38.704;0.152;2022-12-18T16:03:59;4.47;;;3.10;;